createdAt,value
2018-11-06T00:01:29.208Z,63.67
2018-11-06T00:04:02.769Z,69.87
2018-11-06T00:06:31.809Z,64.97
2018-11-06T00:09:00.363Z,68.47
2018-11-06T00:11:28.912Z,65.73
2018-11-06T00:13:57.425Z,74.27
2018-11-06T00:16:25.903Z,65.17
2018-11-06T00:18:54.438Z,65.37
2018-11-06T00:21:22.952Z,65.67
2018-11-06T00:23:51.563Z,69.90
2018-11-06T00:26:20.205Z,64.87
2018-11-06T00:28:48.709Z,66.77
2018-11-06T00:31:17.252Z,64.93
2018-11-06T00:33:45.748Z,62.73
2018-11-06T00:36:14.262Z,65.00
2018-11-06T00:38:42.742Z,66.83
2018-11-06T00:41:11.364Z,64.37
2018-11-06T00:43:39.918Z,72.03
2018-11-06T00:46:08.400Z,68.20
2018-11-06T00:48:36.951Z,59.63
2018-11-06T00:51:05.582Z,61.63
2018-11-06T00:53:34.033Z,68.70
2018-11-06T00:56:02.592Z,67.70
2018-11-06T00:58:31.062Z,64.93
2018-11-06T01:00:59.543Z,62.77
2018-11-06T01:03:33.451Z,60.23
2018-11-06T01:06:01.947Z,69.30
2018-11-06T01:08:30.463Z,65.50
2018-11-06T01:10:58.966Z,68.33
2018-11-06T01:13:27.452Z,59.80
2018-11-06T01:15:56.028Z,63.47
2018-11-06T01:18:24.574Z,64.57
2018-11-06T01:20:53.060Z,68.23
2018-11-06T01:23:21.830Z,67.33
2018-11-06T01:25:50.324Z,62.97
2018-11-06T01:28:18.790Z,68.33
2018-11-06T01:30:47.531Z,68.20
2018-11-06T01:33:16.015Z,69.60
2018-11-06T01:35:44.569Z,65.33
2018-11-06T01:38:13.051Z,66.10
2018-11-06T01:40:41.563Z,63.37
2018-11-06T01:43:10.051Z,70.40
2018-11-06T01:45:38.530Z,67.67
2018-11-06T01:48:07.042Z,64.20
2018-11-06T01:50:35.567Z,72.93
2018-11-06T01:53:04.115Z,69.23
2018-11-06T01:55:32.631Z,71.73
2018-11-06T01:58:01.142Z,66.10
2018-11-06T02:00:29.693Z,75.13
2018-11-06T02:02:58.219Z,70.60
2018-11-06T02:05:26.692Z,65.60
2018-11-06T02:07:55.316Z,69.70
2018-11-06T02:10:23.818Z,72.67
2018-11-06T02:12:52.318Z,71.23
2018-11-06T02:15:20.831Z,70.30
2018-11-06T02:17:49.384Z,72.47
2018-11-06T02:20:17.993Z,78.00
2018-11-06T02:22:46.942Z,69.53
2018-11-06T02:25:15.776Z,74.13
2018-11-06T02:27:44.324Z,70.90
2018-11-06T02:30:14.449Z,76.57
2018-11-06T02:32:43.914Z,74.27
2018-11-06T02:35:12.423Z,71.03
2018-11-06T02:37:41.023Z,76.87
2018-11-06T02:40:11.439Z,76.60
2018-11-06T02:42:40.175Z,73.03
2018-11-06T02:45:09.304Z,78.53
2018-11-06T02:47:37.959Z,73.90
2018-11-06T02:50:07.104Z,79.47
2018-11-06T02:52:35.617Z,72.87
2018-11-06T02:55:04.516Z,72.50
2018-11-06T02:57:33.030Z,72.20
2018-11-06T03:00:02.481Z,73.37
2018-11-06T03:02:31.466Z,74.13
2018-11-06T03:05:00.020Z,66.13
2018-11-06T03:07:28.530Z,68.30
2018-11-06T03:09:57.043Z,75.60
2018-11-06T03:12:25.534Z,71.53
2018-11-06T03:14:54.035Z,67.40
2018-11-06T03:17:22.606Z,66.13
2018-11-06T03:19:51.115Z,67.63
2018-11-06T03:22:19.795Z,65.57
2018-11-06T03:24:48.321Z,66.33
2018-11-06T03:27:16.979Z,65.87
2018-11-06T03:29:45.483Z,72.47
2018-11-06T03:32:13.997Z,73.40
2018-11-06T03:34:42.543Z,64.40
2018-11-06T03:37:11.024Z,70.93
2018-11-06T03:39:39.569Z,65.10
2018-11-06T03:42:08.135Z,63.67
2018-11-06T03:44:36.703Z,65.87
2018-11-06T03:47:05.570Z,62.63
2018-11-06T03:49:34.049Z,66.17
2018-11-06T03:52:02.635Z,62.47
2018-11-06T03:54:31.200Z,64.40
2018-11-06T03:56:59.703Z,66.60
2018-11-06T03:59:28.213Z,64.23
2018-11-06T04:01:56.744Z,69.60
2018-11-06T04:04:25.250Z,66.17
2018-11-06T04:06:53.789Z,71.17
2018-11-06T04:09:22.311Z,76.87
2018-11-06T04:11:50.841Z,66.23
2018-11-06T04:14:20.187Z,69.47
2018-11-06T04:16:48.739Z,70.13
2018-11-06T04:19:17.236Z,66.30
2018-11-06T04:21:45.725Z,66.07
2018-11-06T04:24:14.819Z,61.43
2018-11-06T04:26:43.373Z,65.70
2018-11-06T04:29:11.906Z,69.43
2018-11-06T04:31:40.785Z,72.83
2018-11-06T04:34:09.730Z,72.40
2018-11-06T04:36:38.252Z,68.20
2018-11-06T04:39:09.177Z,68.63
2018-11-06T04:41:37.750Z,69.77
2018-11-06T04:44:06.641Z,78.50
2018-11-06T04:46:35.165Z,66.97
2018-11-06T04:49:04.207Z,74.13
2018-11-06T04:51:32.681Z,67.00
2018-11-06T04:54:01.985Z,64.67
2018-11-06T04:56:31.307Z,67.87
2018-11-06T04:58:59.816Z,62.90
2018-11-06T05:01:28.328Z,62.97
2018-11-06T05:03:56.856Z,63.00
2018-11-06T05:06:25.857Z,65.03
2018-11-06T05:08:54.374Z,64.07
2018-11-06T05:11:22.977Z,66.07
2018-11-06T05:13:51.566Z,60.93
2018-11-06T05:16:20.095Z,65.20
2018-11-06T05:18:48.634Z,64.03
2018-11-06T05:21:17.174Z,61.43
2018-11-06T05:23:45.734Z,67.53
2018-11-06T05:26:14.236Z,71.47
2018-11-06T05:28:42.727Z,71.27
2018-11-06T05:31:11.307Z,67.67
2018-11-06T05:33:39.841Z,64.73
2018-11-06T05:36:08.315Z,68.47
2018-11-06T05:38:36.855Z,56.37
2018-11-06T05:41:06.669Z,62.57
2018-11-06T05:43:35.899Z,81.53
2018-11-06T05:46:04.525Z,63.13
2018-11-06T05:48:33.061Z,58.60
2018-11-06T05:51:01.636Z,57.30
2018-11-06T05:53:30.152Z,59.13
2018-11-06T05:55:58.661Z,63.50
2018-11-06T05:58:27.177Z,61.93
2018-11-06T06:00:55.790Z,61.43
2018-11-06T06:03:24.294Z,64.00
2018-11-06T06:05:52.792Z,63.63
2018-11-06T06:08:21.324Z,60.27
2018-11-06T06:10:50.904Z,63.87
2018-11-06T06:13:19.397Z,58.47
2018-11-06T06:15:47.960Z,60.10
2018-11-06T06:18:16.466Z,59.03
2018-11-06T06:20:44.938Z,63.83
2018-11-06T06:23:13.571Z,81.07
2018-11-06T06:25:42.026Z,64.50
2018-11-06T06:28:10.579Z,62.73
2018-11-06T06:30:39.080Z,63.70
2018-11-06T06:33:07.577Z,62.37
2018-11-06T06:35:36.089Z,55.97
2018-11-06T06:38:05.213Z,55.80
2018-11-06T06:40:33.720Z,56.50
2018-11-06T06:43:02.267Z,62.83
2018-11-06T06:45:30.788Z,61.33
2018-11-06T06:47:59.317Z,63.47
2018-11-06T06:50:27.801Z,73.13
2018-11-06T06:52:56.329Z,64.43
2018-11-06T06:55:24.855Z,72.93
2018-11-06T06:57:53.351Z,80.70
2018-11-06T07:00:22.984Z,83.73
2018-11-06T07:02:51.644Z,69.47
2018-11-06T07:05:22.416Z,61.53
2018-11-06T07:07:51.011Z,55.50
2018-11-06T07:10:20.890Z,59.60
2018-11-06T07:12:50.195Z,57.43
2018-11-06T07:15:20.257Z,61.73
2018-11-06T07:17:49.501Z,58.07
2018-11-06T07:20:19.493Z,59.37
2018-11-06T07:22:48.112Z,60.23
2018-11-06T07:25:16.686Z,66.63
2018-11-06T07:27:46.330Z,63.93
2018-11-06T07:30:16.538Z,58.17
2018-11-06T07:32:45.570Z,63.20
2018-11-06T07:35:15.127Z,56.70
2018-11-06T07:37:44.733Z,53.47
2018-11-06T07:40:14.420Z,64.03
2018-11-06T07:42:43.115Z,62.97
2018-11-06T07:45:17.098Z,57.17
2018-11-06T07:47:45.640Z,60.20
2018-11-06T07:50:14.657Z,54.73
2018-11-06T07:52:43.307Z,55.43
2018-11-06T07:55:13.320Z,61.90
2018-11-06T07:57:41.896Z,53.53
2018-11-06T08:00:18.294Z,55.07
2018-11-06T08:02:47.630Z,57.73
2018-11-06T08:05:16.446Z,57.13
2018-11-06T08:07:45.702Z,53.50
2018-11-06T08:10:14.309Z,55.73
2018-11-06T08:12:44.035Z,54.53
2018-11-06T08:15:13.249Z,55.37
2018-11-06T08:17:42.571Z,52.27
2018-11-06T08:20:11.123Z,53.27
2018-11-06T08:22:39.879Z,59.60
2018-11-06T08:25:10.038Z,55.63
2018-11-06T08:27:39.291Z,47.73
2018-11-06T08:30:08.456Z,48.27
2018-11-06T08:32:37.405Z,50.20
2018-11-06T08:35:07.119Z,48.93
2018-11-06T08:37:35.651Z,45.13
2018-11-06T08:40:04.303Z,49.53
2018-11-06T08:42:32.868Z,46.50
2018-11-06T08:45:01.339Z,54.27
2018-11-06T08:47:29.879Z,44.33
2018-11-06T08:49:58.419Z,49.10
2018-11-06T08:52:26.951Z,50.13
2018-11-06T08:54:55.431Z,54.20
2018-11-06T08:57:23.946Z,53.17
2018-11-06T08:59:52.455Z,56.27
2018-11-06T09:02:21.011Z,50.50
2018-11-06T09:04:49.495Z,50.23
2018-11-06T09:07:18.020Z,54.73
2018-11-06T09:09:46.534Z,48.13
2018-11-06T09:12:15.992Z,52.77
2018-11-06T09:14:44.512Z,53.17
2018-11-06T09:17:13.029Z,56.43
2018-11-06T09:19:41.544Z,57.13
2018-11-06T09:22:10.074Z,54.87
2018-11-06T09:24:38.653Z,59.67
2018-11-06T09:27:07.207Z,58.83
2018-11-06T09:29:35.758Z,51.70
2018-11-06T09:32:04.652Z,54.63
2018-11-06T09:34:33.310Z,56.67
2018-11-06T09:37:01.929Z,54.87
2018-11-06T09:39:30.783Z,59.23
2018-11-06T09:41:59.329Z,53.17
2018-11-06T09:44:27.927Z,52.97
2018-11-06T09:46:56.453Z,51.97
2018-11-06T09:49:25.064Z,47.70
2018-11-06T09:51:53.649Z,41.43
2018-11-06T09:54:22.135Z,42.10
2018-11-06T09:56:50.662Z,41.40
2018-11-06T09:59:19.239Z,37.80
2018-11-06T10:01:47.760Z,38.77
2018-11-06T10:04:16.338Z,41.77
2018-11-06T10:06:45.119Z,37.33
2018-11-06T10:09:13.510Z,34.77
2018-11-06T10:11:42.026Z,41.40
2018-11-06T10:14:10.600Z,33.93
2018-11-06T10:16:39.142Z,35.40
2018-11-06T10:19:07.674Z,39.13
2018-11-06T10:21:36.290Z,36.63
2018-11-06T10:24:05.924Z,34.33
2018-11-06T10:26:34.480Z,33.53
2018-11-06T10:29:03.070Z,36.10
2018-11-06T10:31:31.585Z,40.87
2018-11-06T10:34:00.175Z,37.73
2018-11-06T10:36:28.747Z,36.77
2018-11-06T10:38:57.313Z,34.83
2018-11-06T10:41:25.815Z,39.57
2018-11-06T10:43:54.359Z,36.17
2018-11-06T10:46:22.911Z,33.97
2018-11-06T10:48:51.577Z,36.80
2018-11-06T10:51:20.155Z,37.17
2018-11-06T10:53:48.737Z,34.87
2018-11-06T10:56:17.248Z,36.93
2018-11-06T10:58:45.777Z,37.77
2018-11-06T11:01:19.561Z,35.13
2018-11-06T11:03:53.265Z,41.33
2018-11-06T11:06:21.823Z,35.97
2018-11-06T11:08:50.345Z,35.13
2018-11-06T11:11:18.899Z,34.73
2018-11-06T11:13:47.376Z,39.60
2018-11-06T11:16:15.845Z,41.40
2018-11-06T11:18:44.367Z,40.53
2018-11-06T11:21:12.876Z,37.70
2018-11-06T11:23:41.399Z,40.43
2018-11-06T11:26:09.923Z,36.43
2018-11-06T11:28:38.537Z,39.10
2018-11-06T11:31:07.046Z,46.80
2018-11-06T11:33:35.593Z,39.07
2018-11-06T11:36:04.110Z,44.30
2018-11-06T11:38:32.678Z,36.07
2018-11-06T11:41:01.171Z,41.37
2018-11-06T11:43:29.663Z,39.67
2018-11-06T11:45:58.323Z,46.20
2018-11-06T11:48:26.805Z,44.10
2018-11-06T11:50:55.335Z,45.17
2018-11-06T11:53:23.811Z,49.57
2018-11-06T11:55:52.711Z,37.13
2018-11-06T11:58:21.279Z,46.97
2018-11-06T12:00:49.788Z,41.07
2018-11-06T12:03:18.339Z,36.23
2018-11-06T12:05:46.877Z,37.53
2018-11-06T12:08:15.439Z,35.77
2018-11-06T12:10:44.041Z,37.20
2018-11-06T12:13:12.540Z,36.73
2018-11-06T12:15:41.364Z,35.53
2018-11-06T12:18:09.924Z,38.07
2018-11-06T12:20:38.444Z,36.67
2018-11-06T12:23:06.970Z,33.10
2018-11-06T12:25:35.637Z,33.87
2018-11-06T12:28:04.030Z,29.30
2018-11-06T12:30:32.667Z,31.40
2018-11-06T12:33:01.228Z,29.13
2018-11-06T12:35:29.724Z,27.10
2018-11-06T12:37:58.219Z,25.70
2018-11-06T12:40:26.761Z,26.13
2018-11-06T12:42:55.277Z,26.57
2018-11-06T12:45:23.787Z,25.63
2018-11-06T12:47:52.455Z,32.20
2018-11-06T12:50:21.029Z,31.53
2018-11-06T12:52:49.546Z,29.87
2018-11-06T12:55:18.087Z,27.17
2018-11-06T12:57:46.579Z,31.70
2018-11-06T13:00:16.565Z,33.53
2018-11-06T13:02:45.171Z,31.30
2018-11-06T13:05:13.692Z,29.87
2018-11-06T13:07:43.097Z,33.77
2018-11-06T13:10:12.484Z,25.20
2018-11-06T13:12:41.579Z,27.37
2018-11-06T13:15:10.104Z,30.47
2018-11-06T13:17:38.712Z,38.17
2018-11-06T13:20:12.148Z,33.07
2018-11-06T13:22:41.516Z,29.57
2018-11-06T13:25:10.125Z,32.87
2018-11-06T13:27:39.599Z,34.00
2018-11-06T13:30:10.508Z,29.43
2018-11-06T13:32:39.572Z,31.20
2018-11-06T13:35:08.524Z,37.40
2018-11-06T13:37:37.106Z,29.00
2018-11-06T13:40:06.959Z,33.73
2018-11-06T13:42:35.624Z,35.90
2018-11-06T13:45:04.799Z,29.93
2018-11-06T13:47:33.007Z,38.80
2018-11-06T13:50:01.555Z,32.90
2018-11-06T13:52:30.139Z,28.47
2018-11-06T13:54:58.684Z,30.47
2018-11-06T13:57:27.215Z,31.97
2018-11-06T13:59:55.738Z,26.03
2018-11-06T14:02:24.249Z,32.73
2018-11-06T14:04:52.737Z,27.67
2018-11-06T14:07:21.405Z,28.80
2018-11-06T14:09:50.106Z,29.93
2018-11-06T14:12:18.738Z,31.10
2018-11-06T14:14:47.298Z,31.80
2018-11-06T14:17:15.784Z,30.20
2018-11-06T14:19:44.298Z,23.70
2018-11-06T14:22:12.842Z,23.00
2018-11-06T14:24:41.336Z,24.80
2018-11-06T14:27:09.978Z,23.60
2018-11-06T14:29:38.428Z,25.20
2018-11-06T14:32:06.993Z,26.27
2018-11-06T14:34:35.619Z,21.20
2018-11-06T14:37:04.199Z,24.67
2018-11-06T14:39:32.725Z,26.67
2018-11-06T14:42:01.324Z,20.63
2018-11-06T14:44:29.823Z,20.90
2018-11-06T14:46:58.382Z,19.97
2018-11-06T14:49:26.920Z,23.27
2018-11-06T14:51:55.416Z,19.37
2018-11-06T14:54:23.947Z,16.93
2018-11-06T14:56:52.469Z,21.17
2018-11-06T14:59:21.033Z,18.93
2018-11-06T15:01:49.519Z,19.77
2018-11-06T15:04:18.041Z,20.07
2018-11-06T15:06:46.720Z,20.92
2018-11-06T15:09:15.231Z,20.83
2018-11-06T15:11:43.729Z,23.73
2018-11-06T15:14:12.272Z,22.97
2018-11-06T15:16:40.852Z,19.47
2018-11-06T15:19:09.480Z,21.13
2018-11-06T15:21:37.994Z,26.43
2018-11-06T15:24:07.348Z,22.63
2018-11-06T15:26:35.980Z,31.60
2018-11-06T15:29:04.861Z,22.70
2018-11-06T15:31:33.431Z,23.23
2018-11-06T15:34:02.043Z,24.10
2018-11-06T15:36:30.861Z,26.73
2018-11-06T15:38:59.481Z,29.87
2018-11-06T15:41:28.017Z,29.07
2018-11-06T15:43:59.749Z,33.63
2018-11-06T15:46:28.257Z,28.50
2018-11-06T15:48:57.034Z,25.07
2018-11-06T15:51:25.594Z,32.13
2018-11-06T15:53:54.114Z,34.83
2018-11-06T15:56:22.694Z,33.43
2018-11-06T15:58:51.586Z,33.53
2018-11-06T16:01:20.127Z,45.17
2018-11-06T16:03:48.668Z,31.40
2018-11-06T16:06:17.218Z,31.20
2018-11-06T16:08:45.692Z,38.27
2018-11-06T16:11:14.242Z,33.30
2018-11-06T16:13:42.853Z,38.23
2018-11-06T16:16:11.430Z,34.47
2018-11-06T16:18:39.938Z,33.77
2018-11-06T16:21:08.597Z,39.13
2018-11-06T16:23:37.194Z,34.73
2018-11-06T16:26:05.807Z,38.60
2018-11-06T16:28:34.523Z,41.57
2018-11-06T16:31:03.047Z,42.80
2018-11-06T16:33:31.513Z,72.33
2018-11-06T16:36:00.047Z,91.53
2018-11-06T16:38:28.628Z,70.27
2018-11-06T16:40:57.174Z,64.57
2018-11-06T16:43:25.771Z,76.50
2018-11-06T16:45:54.279Z,77.77
2018-11-06T16:48:22.948Z,83.13
2018-11-06T16:50:52.594Z,59.83
2018-11-06T16:53:21.330Z,57.67
2018-11-06T16:55:49.854Z,69.97
2018-11-06T16:58:18.469Z,61.37
2018-11-06T17:00:47.195Z,70.37
2018-11-06T17:03:15.644Z,56.67
2018-11-06T17:05:44.308Z,57.57
2018-11-06T17:08:12.922Z,50.77
2018-11-06T17:10:41.618Z,51.67
2018-11-06T17:13:10.206Z,47.33
2018-11-06T17:15:38.869Z,53.47
2018-11-06T17:18:07.763Z,52.03
2018-11-06T17:20:36.411Z,45.80
2018-11-06T17:23:05.345Z,52.53
2018-11-06T17:25:33.954Z,44.67
2018-11-06T17:28:02.556Z,44.80
2018-11-06T17:30:31.566Z,44.07
2018-11-06T17:33:00.157Z,44.37
2018-11-06T17:35:28.827Z,45.40
2018-11-06T17:37:57.363Z,45.30
2018-11-06T17:40:25.937Z,50.43
2018-11-06T17:42:54.506Z,52.17
2018-11-06T17:45:24.224Z,47.20
2018-11-06T17:47:52.828Z,55.80
2018-11-06T17:50:21.449Z,54.27
2018-11-06T17:52:50.090Z,60.20
2018-11-06T17:55:20.036Z,63.00
2018-11-06T17:57:48.648Z,63.20
2018-11-06T18:00:19.415Z,71.90
2018-11-06T18:02:48.109Z,77.23
2018-11-06T18:05:17.861Z,59.90
2018-11-06T18:07:46.489Z,61.93
2018-11-06T18:10:16.646Z,57.73
2018-11-06T18:12:45.625Z,58.17
2018-11-06T18:15:14.328Z,51.60
2018-11-06T18:17:43.303Z,51.67
2018-11-06T18:20:13.167Z,53.17
2018-11-06T18:22:42.667Z,57.20
2018-11-06T18:25:12.434Z,53.90
2018-11-06T18:27:41.427Z,50.73
2018-11-06T18:30:13.437Z,53.03
2018-11-06T18:32:42.174Z,50.13
2018-11-06T18:35:12.176Z,49.27
2018-11-06T18:37:40.777Z,49.23
2018-11-06T18:40:12.301Z,49.47
2018-11-06T18:42:41.469Z,52.53
2018-11-06T18:45:10.117Z,49.27
2018-11-06T18:47:38.876Z,48.40
2018-11-06T18:50:09.453Z,48.97
2018-11-06T18:52:38.204Z,49.77
2018-11-06T18:55:07.463Z,53.40
2018-11-06T18:57:36.300Z,48.30
2018-11-06T19:00:05.871Z,51.63
2018-11-06T19:02:34.543Z,51.23
2018-11-06T19:05:03.222Z,50.37
2018-11-06T19:07:32.345Z,48.87
2018-11-06T19:10:01.346Z,54.20
2018-11-06T19:12:30.627Z,52.13
2018-11-06T19:14:59.415Z,48.90
2018-11-06T19:17:28.454Z,51.07
2018-11-06T19:19:57.140Z,52.77
2018-11-06T19:22:25.868Z,52.33
2018-11-06T19:24:54.572Z,54.30
2018-11-06T19:27:23.173Z,51.03
2018-11-06T19:29:51.823Z,55.97
2018-11-06T19:32:20.572Z,50.40
2018-11-06T19:34:49.354Z,48.67
2018-11-06T19:37:18.032Z,48.03
2018-11-06T19:39:46.748Z,54.10
2018-11-06T19:42:15.525Z,49.67
2018-11-06T19:44:44.148Z,55.13
2018-11-06T19:47:12.883Z,49.73
2018-11-06T19:49:41.775Z,49.30
2018-11-06T19:52:10.455Z,49.93
2018-11-06T19:54:39.158Z,49.83
2018-11-06T19:57:08.021Z,47.77
2018-11-06T19:59:36.712Z,51.30
2018-11-06T20:02:06.183Z,56.13
2018-11-06T20:04:35.000Z,50.53
2018-11-06T20:07:04.042Z,55.87
2018-11-06T20:09:32.681Z,50.27
2018-11-06T20:12:01.427Z,50.47
2018-11-06T20:14:29.953Z,52.80
2018-11-06T20:16:58.860Z,63.10
2018-11-06T20:19:27.702Z,52.83
2018-11-06T20:21:56.794Z,50.47
2018-11-06T20:24:25.533Z,55.87
2018-11-06T20:26:54.283Z,58.37
2018-11-06T20:29:23.077Z,60.10
2018-11-06T20:31:51.729Z,56.67
2018-11-06T20:34:20.417Z,61.07
2018-11-06T20:36:49.114Z,60.30
2018-11-06T20:39:17.879Z,49.50
2018-11-06T20:41:46.625Z,48.93
2018-11-06T20:44:15.297Z,50.70
2018-11-06T20:46:43.954Z,48.97
2018-11-06T20:49:12.646Z,50.40
2018-11-06T20:51:41.286Z,49.23
2018-11-06T20:54:10.050Z,52.70
2018-11-06T20:56:38.718Z,46.37
2018-11-06T20:59:07.909Z,50.87
2018-11-06T21:01:36.684Z,48.57
2018-11-06T21:04:05.780Z,49.97
2018-11-06T21:06:34.711Z,50.63
2018-11-06T21:09:04.537Z,51.47
2018-11-06T21:11:33.193Z,52.50
2018-11-06T21:14:01.932Z,50.67
2018-11-06T21:16:30.749Z,55.87
2018-11-06T21:18:59.468Z,54.13
2018-11-06T21:21:28.228Z,49.80
2018-11-06T21:23:56.975Z,57.07
2018-11-06T21:26:25.707Z,54.07
2018-11-06T21:28:54.268Z,57.37
2018-11-06T21:31:23.757Z,53.80
2018-11-06T21:33:52.399Z,52.40
2018-11-06T21:36:20.938Z,55.03
2018-11-06T21:38:49.622Z,58.27
2018-11-06T21:41:18.160Z,55.07
2018-11-06T21:43:46.758Z,56.67
2018-11-06T21:46:15.345Z,57.90
2018-11-06T21:48:43.945Z,55.30
2018-11-06T21:51:12.711Z,60.30
2018-11-06T21:53:41.617Z,58.53
2018-11-06T21:56:10.428Z,59.67
2018-11-06T21:58:39.030Z,62.03
2018-11-06T22:01:07.626Z,67.27
2018-11-06T22:03:36.115Z,54.90
2018-11-06T22:06:04.726Z,58.70
2018-11-06T22:08:33.701Z,56.80
2018-11-06T22:11:02.304Z,56.73
2018-11-06T22:13:31.620Z,60.77
2018-11-06T22:16:00.788Z,69.70
2018-11-06T22:18:29.450Z,58.93
2018-11-06T22:20:57.964Z,57.33
2018-11-06T22:23:26.546Z,59.10
2018-11-06T22:25:55.061Z,58.60
2018-11-06T22:28:23.615Z,60.97
2018-11-06T22:30:52.171Z,62.00
2018-11-06T22:33:20.708Z,62.77
2018-11-06T22:35:49.249Z,62.17
2018-11-06T22:38:17.771Z,63.60
2018-11-06T22:40:46.282Z,65.43
2018-11-06T22:43:14.795Z,57.33
2018-11-06T22:45:43.283Z,62.60
2018-11-06T22:48:11.763Z,55.70
2018-11-06T22:50:40.279Z,61.13
2018-11-06T22:53:08.832Z,59.63
2018-11-06T22:55:37.364Z,58.37
2018-11-06T22:58:06.020Z,61.87
2018-11-06T23:00:39.884Z,62.17
2018-11-06T23:03:11.147Z,59.37
2018-11-06T23:05:39.933Z,60.17
2018-11-06T23:08:13.712Z,57.37
2018-11-06T23:10:42.263Z,56.63
2018-11-06T23:13:11.072Z,56.97
2018-11-06T23:15:39.717Z,59.30
2018-11-06T23:18:08.274Z,56.77
2018-11-06T23:20:36.796Z,55.93
2018-11-06T23:23:05.564Z,58.57
2018-11-06T23:25:34.040Z,55.50
2018-11-06T23:28:02.548Z,57.67
2018-11-06T23:30:31.160Z,62.83
2018-11-06T23:32:59.657Z,57.07
2018-11-06T23:35:28.189Z,59.23
2018-11-06T23:37:56.795Z,51.67
2018-11-06T23:40:25.284Z,57.83
2018-11-06T23:42:53.871Z,61.87
2018-11-06T23:45:22.404Z,55.27
2018-11-06T23:47:50.899Z,57.80
2018-11-06T23:50:19.504Z,52.80
2018-11-06T23:52:48.011Z,59.37
2018-11-06T23:55:16.515Z,61.73
2018-11-06T23:57:45.040Z,59.10
